Flight Track Log - Related Links

Times and Time Zones

All times are in EDT time to prevent confusion due to time zone crossing. See the AAR8735 flight status page for this flight to view local times or setup timezone preferences in your user account.

Time Position Orientation Groundspeed Altitude Reporting Facility
EDT Latitude Longitude Course Direction KTS MPH feet Rate Location/Type
Mon 02:25:30 AM 37.4490 126.7270 157° South 316 364 10,300  Level FlightAware ADS-B
Mon 02:26:20 AM 37.3750 126.7640 158° South 316 364 10,300 202 Level FlightAware ADS-B
Mon 02:26:59 AM 37.3260 126.7890 158° South 328 377 10,600 951 Climbing FlightAware ADS-B
Mon 02:27:42 AM 37.2510 126.8070 169° South 370 426 11,600 759 Climbing FlightAware ADS-B
Mon 02:28:18 AM 37.1980 126.8100 177° South 370 426 11,600  Level FlightAware ADS-B
Mon 02:29:07 AM 37.1270 126.8130 178° South 370 426 11,600  Level FlightAware ADS-B
Mon 02:31:00 AM 36.9820 126.8653 164° South  Level Estimated
Mon 02:32:00 AM 36.9049 126.8931 164° South  Level Estimated
Mon 02:33:00 AM 36.8279 126.9207 164° South  Level Estimated
Mon 02:34:00 AM 36.7509 126.9483 164° South  Level Estimated
Mon 02:35:00 AM 36.6739 126.9759 164° South  Level Estimated
Mon 02:36:00 AM 36.5968 127.0033 164° South  Level Estimated
Mon 02:37:00 AM 36.5198 127.0308 164° South  Level Estimated
Mon 02:38:00 AM 36.4427 127.0582 164° South  Level Estimated
Mon 02:39:00 AM 36.3657 127.0855 164° South  Level Estimated
Mon 02:40:00 AM 36.2886 127.1128 164° South  Level Estimated
Mon 02:41:00 AM 36.2115 127.1400 164° South  Level Estimated
Mon 02:42:00 AM 36.1344 127.1671 164° South  Level Estimated
Mon 02:43:00 AM 36.0574 127.1943 164° South  Level Estimated
Mon 02:44:00 AM 35.9803 127.2213 164° South  Level Estimated
Mon 02:45:00 AM 35.9032 127.2483 164° South  Level Estimated
Mon 02:46:00 AM 35.8261 127.2753 164° South  Level Estimated
Mon 02:47:00 AM 35.7490 127.3022 164° South  Level Estimated
Mon 02:48:00 AM 35.6646 127.3315 164° South  Level Estimated
Mon 02:49:00 AM 35.5803 127.3608 164° South  Level Estimated
Mon 02:50:00 AM 35.4959 127.3901 164° South  Level Estimated
Mon 02:51:00 AM 35.4115 127.4193 164° South  Level Estimated
Mon 02:52:00 AM 35.3272 127.4484 164° South  Level Estimated
Mon 02:53:00 AM 35.2428 127.4774 164° South  Level Estimated
Mon 02:54:00 AM 35.1584 127.5064 164° South  Level Estimated
Mon 02:55:00 AM 35.0740 127.5353 164° South  Level Estimated
Mon 02:56:00 AM 34.9896 127.5642 164° South  Level Estimated
Mon 02:57:00 AM 34.9052 127.5930 164° South  Level Estimated
Mon 02:58:00 AM 34.8398 127.6153 164° South  Level Estimated
Mon 02:59:00 AM 34.8398 127.6153 180° South  Level Estimated
Mon 03:00:00 AM 34.8398 127.6153 180° South  Level Estimated
Mon 03:01:00 AM 34.8398 127.6153 180° South  Level Estimated
Mon 03:02:00 AM 34.8398 127.6153 180° South  Level Estimated
Mon 03:03:00 AM 34.8398 127.6153 180° South  Level Estimated
Mon 03:04:00 AM 34.8398 127.6153 180° South  Level Estimated
Mon 03:05:00 AM 34.8398 127.6153 180° South  Level Estimated
Mon 03:06:00 AM 34.8398 127.6153 180° South  Level Estimated
Mon 03:07:00 AM 34.8398 127.6153 180° South  Level Estimated

Login

Don't have an account? Register now (free) for customized features, flight alerts, and more!